Terminal Aerodrome Forecast
Issued by NWS

Home | Current Version | Previous Version | Text Only | Print | Product List | Glossary On
Versions: 1 2 3 4 5 6 7 8 9 10 11 12 13
000
FTUS45 KABQ 281739
TAFROW
TAF
KROW 281739Z 2818/2918 16010KT P6SM SCT080
     FM290500 05011G21KT P6SM VCTS BKN080CB
     FM290800 36009KT P6SM BKN060=

USA.gov is the U.S. government's official web portal to all federal, state and local government web resources and services.